createdAt,value
2018-07-28T00:02:18.552Z,42.73
2018-07-28T00:04:49.522Z,43.50
2018-07-28T00:07:20.490Z,43.19
2018-07-28T00:09:51.485Z,42.48
2018-07-28T00:12:22.534Z,43.66
2018-07-28T00:14:53.513Z,43.44
2018-07-28T00:17:24.534Z,42.81
2018-07-28T00:19:55.609Z,43.06
2018-07-28T00:22:26.558Z,42.68
2018-07-28T00:24:57.743Z,42.74
2018-07-28T00:27:28.659Z,43.58
2018-07-28T00:29:59.537Z,43.59
2018-07-28T00:32:30.537Z,44.24
2018-07-28T00:35:01.565Z,44.68
2018-07-28T00:37:32.609Z,44.68
2018-07-28T00:40:03.641Z,44.78
2018-07-28T00:42:34.550Z,44.41
2018-07-28T00:45:06.350Z,44.94
2018-07-28T00:47:37.382Z,44.70
2018-07-28T00:50:11.695Z,44.58
2018-07-28T00:52:42.643Z,44.24
2018-07-28T00:55:13.595Z,44.94
2018-07-28T00:57:44.538Z,45.38
2018-07-28T01:00:15.505Z,45.00
2018-07-28T01:02:46.473Z,44.88
2018-07-28T01:05:17.486Z,44.33
2018-07-28T01:07:48.436Z,45.25
2018-07-28T01:10:19.449Z,45.35
2018-07-28T01:12:50.512Z,45.51
2018-07-28T01:15:21.515Z,45.25
2018-07-28T01:17:52.553Z,45.13
2018-07-28T01:20:23.550Z,44.50
2018-07-28T01:22:54.617Z,45.27
2018-07-28T01:25:25.499Z,45.11
2018-07-28T01:27:56.469Z,44.59
2018-07-28T01:30:32.493Z,45.58
2018-07-28T01:33:03.456Z,45.71
2018-07-28T01:35:34.522Z,45.60
2018-07-28T01:38:05.560Z,46.21
2018-07-28T01:40:36.614Z,46.43
2018-07-28T01:43:07.666Z,46.35
2018-07-28T01:45:38.617Z,45.64
2018-07-28T01:48:09.544Z,46.84
2018-07-28T01:50:40.660Z,46.04
2018-07-28T01:53:11.587Z,46.00
2018-07-28T01:55:42.509Z,46.75
2018-07-28T01:58:13.535Z,46.24
2018-07-28T02:00:44.501Z,46.02
2018-07-28T02:03:15.541Z,46.26
2018-07-28T02:05:46.531Z,47.47
2018-07-28T02:08:17.524Z,47.09
2018-07-28T02:10:48.508Z,46.85
2018-07-28T02:13:19.513Z,47.77
2018-07-28T02:15:50.476Z,47.76
2018-07-28T02:18:21.485Z,48.87
2018-07-28T02:20:52.542Z,48.87
2018-07-28T02:23:23.453Z,49.09
2018-07-28T02:25:54.478Z,49.22
2018-07-28T02:28:25.502Z,49.69
2018-07-28T02:30:56.589Z,49.36
2018-07-28T02:33:27.620Z,48.94
2018-07-28T02:35:58.525Z,49.97
2018-07-28T02:38:29.613Z,49.17
2018-07-28T02:41:00.547Z,49.94
2018-07-28T02:43:31.484Z,49.94
2018-07-28T02:46:02.475Z,48.88
2018-07-28T02:48:33.485Z,48.92
2018-07-28T02:51:04.725Z,48.74
2018-07-28T02:53:35.651Z,48.69
2018-07-28T02:56:06.618Z,48.94
2018-07-28T02:58:37.475Z,48.70
2018-07-28T03:01:09.422Z,49.08
2018-07-28T03:03:41.021Z,49.31
2018-07-28T03:06:12.430Z,48.54
2018-07-28T03:08:44.398Z,49.30
2018-07-28T03:11:15.497Z,49.16
2018-07-28T03:13:46.499Z,48.36
2018-07-28T03:16:17.555Z,48.52
2018-07-28T03:18:48.526Z,49.48
2018-07-28T03:21:20.027Z,48.91
2018-07-28T03:23:51.269Z,49.44
2018-07-28T03:26:22.467Z,50.01
2018-07-28T03:28:53.659Z,49.91
2018-07-28T03:31:24.651Z,50.12
2018-07-28T03:33:56.023Z,50.87
2018-07-28T03:36:27.290Z,50.38
2018-07-28T03:38:59.992Z,50.84
2018-07-28T03:41:31.350Z,50.97
2018-07-28T03:44:02.418Z,50.79
2018-07-28T03:46:33.604Z,51.55
2018-07-28T03:49:04.851Z,52.75
2018-07-28T03:51:35.344Z,52.86
2018-07-28T03:54:06.403Z,53.10
2018-07-28T03:56:37.649Z,52.60
2018-07-28T03:59:09.301Z,52.02
2018-07-28T04:01:40.415Z,51.88
2018-07-28T04:04:11.523Z,52.06
2018-07-28T04:06:42.505Z,52.26
2018-07-28T04:09:13.477Z,51.07
2018-07-28T04:11:44.529Z,51.99
2018-07-28T04:14:15.729Z,51.24
2018-07-28T04:16:46.678Z,50.79
2018-07-28T04:19:17.623Z,52.43
2018-07-28T04:21:48.581Z,52.33
2018-07-28T04:24:19.498Z,51.64
2018-07-28T04:26:50.498Z,52.60
2018-07-28T04:29:21.684Z,52.38
2018-07-28T04:31:52.584Z,52.04
2018-07-28T04:34:23.570Z,51.82
2018-07-28T04:36:54.732Z,52.89
2018-07-28T04:39:25.662Z,52.99
2018-07-28T04:41:56.727Z,52.54
2018-07-28T04:44:28.053Z,53.04
2018-07-28T04:46:59.730Z,51.70
2018-07-28T04:49:30.751Z,51.71
2018-07-28T04:52:01.637Z,53.15
2018-07-28T04:54:32.545Z,52.42
2018-07-28T04:57:03.563Z,53.01
2018-07-28T04:59:34.501Z,52.90
2018-07-28T05:02:05.550Z,51.81
2018-07-28T05:04:36.518Z,53.16
2018-07-28T05:07:08.318Z,52.75
2018-07-28T05:09:39.451Z,52.63
2018-07-28T05:12:10.528Z,53.21
2018-07-28T05:14:41.633Z,52.25
2018-07-28T05:17:12.652Z,51.50
2018-07-28T05:19:43.565Z,53.16
2018-07-28T05:22:14.543Z,53.11
2018-07-28T05:24:45.541Z,52.34
2018-07-28T05:27:16.500Z,52.90
2018-07-28T05:29:47.518Z,51.82
2018-07-28T05:32:18.484Z,52.14
2018-07-28T05:34:49.488Z,52.54
2018-07-28T05:37:20.525Z,52.71
2018-07-28T05:39:51.499Z,52.10
2018-07-28T05:42:22.452Z,51.62
2018-07-28T05:44:53.476Z,52.58
2018-07-28T05:47:24.496Z,51.65
2018-07-28T05:49:55.489Z,51.86
2018-07-28T05:52:26.510Z,50.97
2018-07-28T05:54:57.573Z,51.79
2018-07-28T05:57:28.540Z,51.08
2018-07-28T05:59:59.519Z,52.20
2018-07-28T06:02:30.604Z,52.67
2018-07-28T06:05:01.470Z,50.99
2018-07-28T06:07:32.552Z,51.93
2018-07-28T06:10:04.702Z,51.47
2018-07-28T06:12:35.751Z,51.71
2018-07-28T06:15:15.236Z,50.54
2018-07-28T06:17:56.042Z,50.54
2018-07-28T06:20:29.501Z,50.88
2018-07-28T06:23:00.556Z,50.27
2018-07-28T06:25:31.579Z,50.59
2018-07-28T06:28:02.534Z,50.89
2018-07-28T06:30:33.617Z,50.33
2018-07-28T06:33:04.593Z,49.97
2018-07-28T06:35:35.553Z,49.38
2018-07-28T06:38:06.559Z,50.65
2018-07-28T06:40:37.805Z,49.13
2018-07-28T06:43:09.253Z,49.00
2018-07-28T06:45:40.490Z,49.12
2018-07-28T06:48:11.525Z,49.18
2018-07-28T06:50:42.536Z,48.78
2018-07-28T06:53:13.591Z,49.70
2018-07-28T06:55:44.615Z,48.95
2018-07-28T06:58:15.821Z,48.22
2018-07-28T07:00:46.445Z,47.84
2018-07-28T07:03:17.521Z,48.25
2018-07-28T07:05:48.622Z,46.97
2018-07-28T07:08:19.538Z,47.24
2018-07-28T07:10:50.545Z,46.90
2018-07-28T07:13:21.505Z,45.68
2018-07-28T07:15:52.542Z,46.20
2018-07-28T07:18:23.617Z,46.21
2018-07-28T07:20:54.579Z,46.04
2018-07-28T07:23:25.480Z,45.44
2018-07-28T07:25:56.736Z,46.06
2018-07-28T07:28:27.584Z,46.24
2018-07-28T07:30:58.537Z,46.11
2018-07-28T07:33:29.488Z,46.38
2018-07-28T07:36:00.425Z,46.78
2018-07-28T07:38:31.496Z,45.92
2018-07-28T07:41:02.532Z,45.61
2018-07-28T07:43:33.477Z,45.38
2018-07-28T07:46:04.523Z,44.97
2018-07-28T07:48:37.097Z,44.92
2018-07-28T07:51:08.418Z,44.56
2018-07-28T07:53:39.488Z,45.61
2018-07-28T07:56:10.689Z,45.65
2018-07-28T07:58:44.510Z,45.14
2018-07-28T08:01:15.493Z,43.84
2018-07-28T08:03:46.480Z,42.93
2018-07-28T08:06:17.526Z,42.67
2018-07-28T08:08:48.481Z,43.47
2018-07-28T08:11:19.518Z,42.70
2018-07-28T08:13:50.620Z,42.44
2018-07-28T08:16:22.200Z,41.92
2018-07-28T08:18:53.401Z,42.15
2018-07-28T08:21:25.021Z,42.18
2018-07-28T08:23:56.372Z,41.23
2018-07-28T08:26:27.426Z,40.66
2018-07-28T08:28:58.804Z,40.44
2018-07-28T08:31:29.800Z,38.97
2018-07-28T08:35:10.381Z,38.22
2018-07-28T08:37:41.777Z,38.41
2018-07-28T08:40:12.557Z,39.33
2018-07-28T08:42:43.501Z,38.23
2018-07-28T08:45:14.529Z,38.42
2018-07-28T08:47:45.481Z,39.44
2018-07-28T08:50:16.485Z,39.53
2018-07-28T08:52:47.545Z,39.76
2018-07-28T08:55:18.745Z,39.78
2018-07-28T08:57:49.605Z,39.84
2018-07-28T09:00:20.638Z,40.29
2018-07-28T09:02:51.571Z,40.37
2018-07-28T09:05:22.558Z,39.80
2018-07-28T09:07:53.472Z,40.40
2018-07-28T09:10:24.519Z,41.01
2018-07-28T09:12:55.529Z,42.56
2018-07-28T09:15:26.569Z,42.98
2018-07-28T09:17:57.591Z,41.94
2018-07-28T09:20:28.504Z,41.39
2018-07-28T09:22:59.534Z,41.31
2018-07-28T09:25:30.487Z,42.31
2018-07-28T09:28:01.497Z,41.82
2018-07-28T09:30:32.502Z,41.69
2018-07-28T09:33:04.606Z,41.81
2018-07-28T09:35:35.517Z,41.33
2018-07-28T09:38:06.662Z,41.56
2018-07-28T09:40:37.577Z,41.92
2018-07-28T09:43:08.535Z,42.16
2018-07-28T09:45:39.447Z,42.49
2018-07-28T09:48:10.506Z,41.70
2018-07-28T09:50:43.611Z,42.52
2018-07-28T09:53:14.493Z,42.93
2018-07-28T09:55:45.771Z,42.31
2018-07-28T09:58:17.416Z,42.46
2018-07-28T10:00:53.396Z,41.42
2018-07-28T10:03:24.465Z,40.76
2018-07-28T10:05:55.533Z,40.40
2018-07-28T10:08:26.476Z,40.15
2018-07-28T10:10:57.477Z,40.48
2018-07-28T10:13:29.569Z,38.66
2018-07-28T10:16:00.510Z,39.25
2018-07-28T10:18:31.534Z,38.04
2018-07-28T10:21:02.541Z,37.95
2018-07-28T10:23:33.501Z,37.87
2018-07-28T10:26:04.526Z,35.92
2018-07-28T10:28:35.513Z,37.67
2018-07-28T10:31:06.541Z,36.62
2018-07-28T10:33:37.491Z,36.05
2018-07-28T10:36:09.358Z,36.10
2018-07-28T10:38:40.383Z,34.05
2018-07-28T10:41:11.488Z,31.78
2018-07-28T10:43:49.750Z,33.79
2018-07-28T10:46:29.883Z,35.31
2018-07-28T10:49:00.744Z,34.00
2018-07-28T10:51:31.627Z,34.33
2018-07-28T10:54:02.496Z,34.53
2018-07-28T10:56:33.468Z,34.57
2018-07-28T10:59:04.488Z,34.99
2018-07-28T11:01:35.489Z,35.06
2018-07-28T11:04:06.625Z,34.26
2018-07-28T11:06:37.477Z,34.72
2018-07-28T11:09:10.778Z,34.73
2018-07-28T11:11:41.574Z,35.31
2018-07-28T11:14:12.469Z,32.52
2018-07-28T11:16:43.489Z,31.83
2018-07-28T11:19:14.544Z,31.84
2018-07-28T11:21:45.468Z,30.97
2018-07-28T11:24:16.492Z,32.65
2018-07-28T11:26:47.482Z,32.34
2018-07-28T11:29:19.021Z,32.59
2018-07-28T11:32:13.390Z,31.74
2018-07-28T11:35:07.452Z,32.74
2018-07-28T11:38:37.420Z,31.90
2018-07-28T11:41:31.385Z,31.79
2018-07-28T11:45:17.357Z,30.27
2018-07-28T11:47:49.660Z,32.43
2018-07-28T11:50:20.556Z,29.53
2018-07-28T11:52:52.303Z,29.04
2018-07-28T11:55:23.361Z,28.92
2018-07-28T11:57:54.918Z,29.09
2018-07-28T12:00:26.367Z,27.91
2018-07-28T12:02:57.357Z,27.24
2018-07-28T12:05:29.383Z,28.48
2018-07-28T12:08:00.459Z,27.80
2018-07-28T12:10:31.541Z,26.76
2018-07-28T12:13:02.482Z,26.43
2018-07-28T12:15:33.425Z,28.41
2018-07-28T12:18:04.531Z,26.30
2018-07-28T12:20:35.605Z,27.76
2018-07-28T12:23:06.616Z,26.71
2018-07-28T12:25:37.537Z,28.30
2018-07-28T12:28:08.543Z,28.60
2018-07-28T12:30:39.492Z,27.72
2018-07-28T12:33:10.508Z,26.37
2018-07-28T12:35:41.445Z,26.53
2018-07-28T12:38:12.491Z,27.33
2018-07-28T12:40:43.489Z,27.74
2018-07-28T12:43:14.477Z,28.19
2018-07-28T12:45:45.484Z,27.84
2018-07-28T12:48:16.451Z,28.28
2018-07-28T12:50:47.538Z,28.68
2018-07-28T12:53:18.579Z,29.83
2018-07-28T12:55:49.514Z,30.24
2018-07-28T12:58:20.519Z,30.04
2018-07-28T13:00:52.667Z,29.83
2018-07-28T13:03:23.590Z,30.38
2018-07-28T13:05:54.506Z,30.12
2018-07-28T13:08:25.565Z,31.19
2018-07-28T13:10:56.465Z,31.03
2018-07-28T13:13:27.761Z,30.83
2018-07-28T13:15:58.563Z,31.00
2018-07-28T13:18:29.517Z,31.11
2018-07-28T13:21:00.484Z,32.25
2018-07-28T13:23:31.686Z,31.01
2018-07-28T13:26:02.594Z,29.95
2018-07-28T13:28:33.479Z,31.26
2018-07-28T13:31:04.484Z,31.92
2018-07-28T13:33:35.470Z,32.13
2018-07-28T13:36:06.513Z,32.18
2018-07-28T13:38:37.474Z,31.88
2018-07-28T13:42:15.536Z,32.89
2018-07-28T13:44:46.486Z,32.40
2018-07-28T13:47:17.480Z,32.28
2018-07-28T13:49:48.484Z,33.34
2018-07-28T13:52:19.434Z,33.66
2018-07-28T13:54:50.490Z,37.52
2018-07-28T13:57:21.542Z,39.04
2018-07-28T13:59:52.542Z,40.71
2018-07-28T14:02:23.497Z,41.53
2018-07-28T14:04:54.437Z,51.38
2018-07-28T14:07:25.464Z,58.99
2018-07-28T14:09:56.482Z,56.66
2018-07-28T14:12:27.461Z,58.82
2018-07-28T14:14:58.454Z,58.21
2018-07-28T14:17:29.553Z,58.29
2018-07-28T14:20:00.494Z,58.18
2018-07-28T14:22:31.477Z,60.01
2018-07-28T14:25:02.509Z,63.54
2018-07-28T14:27:33.545Z,60.75
2018-07-28T14:30:04.503Z,59.48
2018-07-28T14:32:35.509Z,64.08
2018-07-28T14:35:07.301Z,57.60
2018-07-28T14:37:38.394Z,61.23
2018-07-28T14:40:09.522Z,57.34
2018-07-28T14:42:40.492Z,61.32
2018-07-28T14:45:12.507Z,60.34
2018-07-28T14:47:43.502Z,60.90
2018-07-28T14:50:14.522Z,64.70
2018-07-28T14:52:47.495Z,59.52
2018-07-28T14:55:18.575Z,61.33
2018-07-28T14:57:49.612Z,59.72
2018-07-28T15:00:20.504Z,62.27
2018-07-28T15:02:51.481Z,62.04
2018-07-28T15:05:22.534Z,62.81
2018-07-28T15:07:53.502Z,61.86
2018-07-28T15:10:24.506Z,58.88
2018-07-28T15:12:55.682Z,60.68
2018-07-28T15:15:27.285Z,57.76
2018-07-28T15:17:58.376Z,56.21
2018-07-28T15:20:29.416Z,58.17
2018-07-28T15:23:00.544Z,56.08
2018-07-28T15:25:31.526Z,54.48
2018-07-28T15:28:02.518Z,53.66
2018-07-28T15:30:33.530Z,54.75
2018-07-28T15:33:04.510Z,55.59
2018-07-28T15:35:35.493Z,55.01
2018-07-28T15:38:06.550Z,53.57
2018-07-28T15:40:37.475Z,52.36
2018-07-28T15:43:08.590Z,48.00
2018-07-28T15:45:39.505Z,50.17
2018-07-28T15:48:10.605Z,49.25
2018-07-28T15:50:41.497Z,47.63
2018-07-28T15:53:12.533Z,47.98
2018-07-28T15:55:43.525Z,46.97
2018-07-28T15:58:14.456Z,46.91
2018-07-28T16:00:45.489Z,46.29
2018-07-28T16:03:16.499Z,45.75
2018-07-28T16:05:48.711Z,44.42
2018-07-28T16:08:20.229Z,46.17
2018-07-28T16:10:51.644Z,46.26
2018-07-28T16:13:23.257Z,47.03
2018-07-28T16:16:06.759Z,47.35
2018-07-28T16:18:40.661Z,46.17
2018-07-28T16:21:13.190Z,47.16
2018-07-28T16:23:45.315Z,48.59
2018-07-28T16:26:18.296Z,47.93
2018-07-28T16:28:49.989Z,48.41
2018-07-28T16:31:21.482Z,48.45
2018-07-28T16:33:52.515Z,49.31
2018-07-28T16:36:23.628Z,48.87
2018-07-28T16:38:54.703Z,48.43
2018-07-28T16:41:26.676Z,48.79
2018-07-28T16:44:04.373Z,47.83
2018-07-28T16:46:35.514Z,48.16
2018-07-28T16:49:07.373Z,47.34
2018-07-28T16:51:38.405Z,47.62
2018-07-28T16:54:09.621Z,46.46
2018-07-28T16:56:40.522Z,46.34
2018-07-28T16:59:11.497Z,45.60
2018-07-28T17:01:42.590Z,41.76
2018-07-28T17:04:15.245Z,41.69
2018-07-28T17:06:46.635Z,42.38
2018-07-28T17:09:17.723Z,40.95
2018-07-28T17:11:48.669Z,41.05
2018-07-28T17:14:19.485Z,40.86
2018-07-28T17:16:50.485Z,39.92
2018-07-28T17:19:21.506Z,39.04
2018-07-28T17:21:52.577Z,39.45
2018-07-28T17:24:23.634Z,39.35
2018-07-28T17:26:54.649Z,39.61
2018-07-28T17:29:25.532Z,39.18
2018-07-28T17:31:56.626Z,38.43
2018-07-28T17:34:27.631Z,39.39
2018-07-28T17:36:58.646Z,39.32
2018-07-28T17:39:29.610Z,38.94
2018-07-28T17:42:00.574Z,39.76
2018-07-28T17:44:31.518Z,39.90
2018-07-28T17:47:03.747Z,40.43
2018-07-28T17:49:34.710Z,39.87
2018-07-28T17:52:06.669Z,40.54
2018-07-28T17:54:38.293Z,40.92
2018-07-28T17:57:15.110Z,41.19
2018-07-28T17:59:46.440Z,40.39
2018-07-28T18:02:17.506Z,40.30
2018-07-28T18:04:48.609Z,40.24
2018-07-28T18:07:19.533Z,39.83
2018-07-28T18:09:50.600Z,39.89
2018-07-28T18:12:21.579Z,39.50
2018-07-28T18:14:52.633Z,39.90
2018-07-28T18:17:23.593Z,40.04
2018-07-28T18:19:54.681Z,39.10
2018-07-28T18:22:25.646Z,40.02
2018-07-28T18:24:56.557Z,40.46
2018-07-28T18:27:27.569Z,39.85
2018-07-28T18:29:58.484Z,40.25
2018-07-28T18:32:29.492Z,40.08
2018-07-28T18:35:00.496Z,40.63
2018-07-28T18:37:31.464Z,40.22
2018-07-28T18:40:02.535Z,40.90
2018-07-28T18:42:33.505Z,41.03
2018-07-28T18:45:04.445Z,40.94
2018-07-28T18:47:35.473Z,40.87
2018-07-28T18:50:07.472Z,40.34
2018-07-28T18:52:38.421Z,40.28
2018-07-28T18:55:09.479Z,40.79
2018-07-28T18:57:40.444Z,40.99
2018-07-28T19:00:11.469Z,40.96
2018-07-28T19:02:42.458Z,41.16
2018-07-28T19:05:13.418Z,41.42
2018-07-28T19:07:44.491Z,41.14
2018-07-28T19:10:15.481Z,41.35
2018-07-28T19:12:51.639Z,41.60
2018-07-28T19:15:22.472Z,41.59
2018-07-28T19:17:58.486Z,41.76
2018-07-28T19:20:29.468Z,41.63
2018-07-28T19:23:05.689Z,40.99
2018-07-28T19:25:36.616Z,40.65
2018-07-28T19:28:12.611Z,41.35
2018-07-28T19:30:43.534Z,40.83
2018-07-28T19:33:14.476Z,41.07
2018-07-28T19:35:50.511Z,40.62
2018-07-28T19:38:21.514Z,41.27
2018-07-28T19:40:52.484Z,41.34
2018-07-28T19:43:23.444Z,41.86
2018-07-28T19:45:54.495Z,41.59
2018-07-28T19:48:25.501Z,41.80
2018-07-28T19:50:56.502Z,41.75
2018-07-28T19:54:55.439Z,43.17
2018-07-28T19:57:26.449Z,41.95
2018-07-28T19:59:57.442Z,42.74
2018-07-28T20:02:28.464Z,42.53
2018-07-28T20:04:59.557Z,42.52
2018-07-28T20:07:30.472Z,43.37
2018-07-28T20:10:01.510Z,43.20
2018-07-28T20:12:32.525Z,42.54
2018-07-28T20:15:03.471Z,43.60
2018-07-28T20:17:34.439Z,43.89
2018-07-28T20:20:05.505Z,43.41
2018-07-28T20:22:36.415Z,43.57
2018-07-28T20:25:07.484Z,43.47
2018-07-28T20:27:38.430Z,43.16
2018-07-28T20:30:09.396Z,44.40
2018-07-28T20:32:41.377Z,43.46
2018-07-28T20:35:12.393Z,43.74
2018-07-28T20:37:43.510Z,43.26
2018-07-28T20:40:14.508Z,43.66
2018-07-28T20:42:45.485Z,44.00
2018-07-28T20:45:16.669Z,44.71
2018-07-28T20:47:47.580Z,43.75
2018-07-28T20:50:18.626Z,43.93
2018-07-28T20:52:49.501Z,44.56
2018-07-28T20:55:20.521Z,44.63
2018-07-28T20:57:51.525Z,44.21
2018-07-28T21:00:22.530Z,45.28
2018-07-28T21:02:53.492Z,45.26
2018-07-28T21:05:24.497Z,44.59
2018-07-28T21:07:55.498Z,45.29
2018-07-28T21:10:26.497Z,45.58
2018-07-28T21:12:57.507Z,45.58
2018-07-28T21:15:28.477Z,45.84
2018-07-28T21:17:59.486Z,46.08
2018-07-28T21:20:30.502Z,45.73
2018-07-28T21:23:01.481Z,46.50
2018-07-28T21:25:32.537Z,45.74
2018-07-28T21:28:03.544Z,46.41
2018-07-28T21:30:34.495Z,46.31
2018-07-28T21:33:05.517Z,46.66
2018-07-28T21:35:36.493Z,47.33
2018-07-28T21:38:08.287Z,46.31
2018-07-28T21:40:39.389Z,47.44
2018-07-28T21:43:10.468Z,46.81
2018-07-28T21:45:41.456Z,47.57
2018-07-28T21:48:12.478Z,47.59
2018-07-28T21:50:43.506Z,47.01
2018-07-28T21:53:14.464Z,48.24
2018-07-28T21:55:45.482Z,47.30
2018-07-28T21:58:16.521Z,47.94
2018-07-28T22:01:07.008Z,48.10
2018-07-28T22:03:38.429Z,47.72
2018-07-28T22:06:09.497Z,47.82
2018-07-28T22:08:40.509Z,47.83
2018-07-28T22:11:11.510Z,47.66
2018-07-28T22:13:42.505Z,48.45
2018-07-28T22:16:13.485Z,47.83
2018-07-28T22:18:44.510Z,48.92
2018-07-28T22:21:15.495Z,49.06
2018-07-28T22:23:46.525Z,47.77
2018-07-28T22:26:17.497Z,48.29
2018-07-28T22:28:48.477Z,48.48
2018-07-28T22:31:19.493Z,49.43
2018-07-28T22:33:50.474Z,49.43
2018-07-28T22:36:21.510Z,49.86
2018-07-28T22:38:52.457Z,49.38
2018-07-28T22:41:23.496Z,49.94
2018-07-28T22:43:54.437Z,49.31
2018-07-28T22:46:25.447Z,50.33
2018-07-28T22:48:56.469Z,50.17
2018-07-28T22:51:27.454Z,50.25
2018-07-28T22:53:58.498Z,49.46
2018-07-28T22:56:29.453Z,50.49
2018-07-28T22:59:00.444Z,49.68
2018-07-28T23:01:31.457Z,50.53
2018-07-28T23:04:02.423Z,50.33
2018-07-28T23:06:33.451Z,50.08
2018-07-28T23:09:05.396Z,50.62
2018-07-28T23:11:37.274Z,50.00
2018-07-28T23:14:08.412Z,51.53
2018-07-28T23:16:39.487Z,50.74
2018-07-28T23:20:38.458Z,50.25
2018-07-28T23:23:09.408Z,51.34
2018-07-28T23:25:40.469Z,51.82
2018-07-28T23:28:11.423Z,51.92
2018-07-28T23:30:42.428Z,51.18
2018-07-28T23:33:13.436Z,51.99
2018-07-28T23:35:44.440Z,52.03
2018-07-28T23:38:15.456Z,51.51
2018-07-28T23:40:47.288Z,51.80
2018-07-28T23:43:18.510Z,51.30
2018-07-28T23:45:49.480Z,51.34
2018-07-28T23:48:20.461Z,51.60
2018-07-28T23:50:51.470Z,51.70
2018-07-28T23:53:22.432Z,52.33
2018-07-28T23:55:53.474Z,50.83
2018-07-28T23:58:24.441Z,51.53
